createdAt,value
2022-07-29T00:01:44.533Z,98402.69
2022-07-29T00:04:14.459Z,98395.22
2022-07-29T00:06:44.049Z,98401.03
2022-07-29T00:09:13.343Z,98393.56
2022-07-29T00:11:43.083Z,98399.94
2022-07-29T00:14:12.489Z,98390.63
2022-07-29T00:16:41.904Z,98388.44
2022-07-29T00:19:11.210Z,98400.88
2022-07-29T00:21:41.918Z,98392.09
2022-07-29T00:24:11.147Z,98394.50
2022-07-29T00:26:40.366Z,98390.19
2022-07-29T00:31:59.131Z,98402.38
2022-07-29T00:34:46.816Z,98408.47
2022-07-29T00:37:16.225Z,98395.69
2022-07-29T00:39:45.476Z,98401.81
2022-07-29T00:42:14.717Z,98400.28
2022-07-29T00:44:44.169Z,98401.44
2022-07-29T00:47:13.968Z,98386.09
2022-07-29T00:49:43.297Z,98369.53
2022-07-29T00:52:13.187Z,98397.81
2022-07-29T00:54:46.338Z,98406.03
2022-07-29T00:57:15.574Z,98405.81
2022-07-29T00:59:44.782Z,98388.22
2022-07-29T01:02:14.075Z,98397.25
2022-07-29T01:04:43.538Z,98392.47
2022-07-29T01:07:13.107Z,98398.06
2022-07-29T01:09:46.911Z,98405.22
2022-07-29T01:12:25.295Z,98374.97
2022-07-29T01:14:56.663Z,98389.91
2022-07-29T01:17:32.832Z,98398.19
2022-07-29T01:20:12.815Z,98400.84
2022-07-29T01:22:59.992Z,98403.22
2022-07-29T01:26:00.253Z,98402.75
2022-07-29T01:29:07.660Z,98404.28
2022-07-29T01:31:59.225Z,98401.63
2022-07-29T01:34:40.541Z,98393.66
2022-07-29T01:37:19.926Z,98397.38
2022-07-29T01:39:52.556Z,98397.63
2022-07-29T01:42:35.154Z,98394.16
2022-07-29T01:45:13.304Z,98387.75
2022-07-29T01:48:03.096Z,98390.06
2022-07-29T01:50:38.687Z,98389.25
2022-07-29T01:53:11.616Z,98394.19
2022-07-29T01:55:45.384Z,98393.38
2022-07-29T01:58:18.582Z,98379.25
2022-07-29T02:00:50.392Z,98391.72
2022-07-29T02:03:19.982Z,98397.22
2022-07-29T02:05:50.599Z,98384.41
2022-07-29T02:08:21.117Z,98385.00
2022-07-29T02:10:52.037Z,98400.91
2022-07-29T02:13:24.682Z,98392.09
2022-07-29T02:15:55.348Z,98405.38
2022-07-29T02:18:28.734Z,98382.63
2022-07-29T02:21:00.294Z,98400.16
2022-07-29T02:23:33.186Z,98398.81
2022-07-29T02:26:24.999Z,98398.22
2022-07-29T02:28:56.892Z,98390.50
2022-07-29T02:31:32.042Z,98392.84
2022-07-29T02:34:06.029Z,98401.56
2022-07-29T02:36:35.727Z,98396.25
2022-07-29T02:39:06.219Z,98395.13
2022-07-29T02:41:45.720Z,98393.22
2022-07-29T02:44:24.953Z,98391.59
2022-07-29T02:47:26.097Z,98385.75
2022-07-29T02:50:03.713Z,98397.44
2022-07-29T02:52:35.362Z,98398.16
2022-07-29T02:55:13.413Z,98403.47
2022-07-29T02:57:54.448Z,98398.66
2022-07-29T03:00:38.363Z,98400.78
2022-07-29T03:03:16.027Z,98394.63
2022-07-29T03:05:45.479Z,98382.66
2022-07-29T03:08:16.083Z,98394.28
2022-07-29T03:10:46.705Z,98393.91
2022-07-29T03:13:16.807Z,98387.78
2022-07-29T03:15:47.115Z,98396.00
2022-07-29T03:18:16.587Z,98399.38
2022-07-29T03:20:45.964Z,98403.06
2022-07-29T03:23:20.966Z,98401.72
2022-07-29T03:25:54.397Z,98397.09
2022-07-29T03:28:24.777Z,98394.44
2022-07-29T03:30:56.428Z,98403.50
2022-07-29T03:33:25.882Z,98393.38
2022-07-29T03:35:55.083Z,98395.19
2022-07-29T03:38:27.870Z,98410.88
2022-07-29T03:41:08.479Z,98409.50
2022-07-29T03:43:49.294Z,98409.50
2022-07-29T03:46:22.166Z,98408.66
2022-07-29T03:48:57.529Z,98412.94
2022-07-29T03:51:33.229Z,98408.97
2022-07-29T03:54:14.363Z,98418.25
2022-07-29T03:56:48.523Z,98410.81
2022-07-29T03:59:20.529Z,98405.03
2022-07-29T04:01:51.234Z,98415.44
2022-07-29T04:04:20.810Z,98413.59
2022-07-29T04:06:50.021Z,98413.09
2022-07-29T04:09:19.254Z,98413.09
2022-07-29T04:11:57.106Z,98409.63
2022-07-29T04:14:34.059Z,98401.72
2022-07-29T04:17:05.198Z,98409.75
2022-07-29T04:19:34.783Z,98406.31
2022-07-29T04:22:04.103Z,98410.13
2022-07-29T04:24:33.352Z,98395.31
2022-07-29T04:27:02.623Z,98391.75
2022-07-29T04:29:31.839Z,98403.00
2022-07-29T04:32:01.137Z,98404.63
2022-07-29T04:34:30.534Z,98391.97
2022-07-29T04:36:59.733Z,98399.97
2022-07-29T04:39:30.404Z,98403.78
2022-07-29T04:41:59.875Z,98409.94
2022-07-29T04:44:30.706Z,98400.19
2022-07-29T04:47:09.747Z,98408.78
2022-07-29T04:49:39.807Z,98402.50
2022-07-29T04:52:08.990Z,98416.41
2022-07-29T04:54:38.373Z,98418.06
2022-07-29T04:57:07.525Z,98400.34
2022-07-29T04:59:36.851Z,98414.53
2022-07-29T05:02:06.206Z,98411.97
2022-07-29T05:04:35.527Z,98412.59
2022-07-29T05:07:04.763Z,98409.97
2022-07-29T05:09:33.947Z,98399.94
2022-07-29T05:12:03.280Z,98411.66
2022-07-29T05:14:32.697Z,98407.16
2022-07-29T05:17:01.997Z,98415.69
2022-07-29T05:19:31.241Z,98400.63
2022-07-29T05:22:01.096Z,98404.66
2022-07-29T05:24:30.499Z,98400.69
2022-07-29T05:26:59.706Z,98400.97
2022-07-29T05:29:43.841Z,98393.25
2022-07-29T05:32:14.839Z,98406.00
2022-07-29T05:34:50.797Z,98400.69
2022-07-29T05:37:21.250Z,98398.28
2022-07-29T05:39:56.655Z,98398.31
2022-07-29T05:42:27.172Z,98393.25
2022-07-29T05:44:56.500Z,98403.84
2022-07-29T05:47:25.744Z,98383.13
2022-07-29T05:49:55.171Z,98386.81
2022-07-29T05:52:35.450Z,98394.47
2022-07-29T05:55:06.682Z,98409.59
2022-07-29T05:57:35.921Z,98396.78
2022-07-29T06:00:05.962Z,98410.09
2022-07-29T06:02:41.846Z,98403.09
2022-07-29T06:05:16.265Z,98392.94
2022-07-29T06:07:50.669Z,98395.00
2022-07-29T06:10:20.883Z,98378.13
2022-07-29T06:12:53.602Z,98386.84
2022-07-29T06:15:22.806Z,98389.94
2022-07-29T06:18:00.524Z,98393.06
2022-07-29T06:20:32.297Z,98378.88
2022-07-29T06:23:02.424Z,98388.91
2022-07-29T06:25:31.853Z,98383.25
2022-07-29T06:28:01.347Z,98384.16
2022-07-29T06:30:30.870Z,98378.75
2022-07-29T06:33:01.397Z,98376.78
2022-07-29T06:35:39.066Z,98384.41
2022-07-29T06:38:30.768Z,98376.78
2022-07-29T06:41:06.814Z,98374.50
2022-07-29T06:43:51.931Z,98374.94
2022-07-29T06:46:23.482Z,98368.41
2022-07-29T06:48:53.663Z,98367.19
2022-07-29T06:51:23.857Z,98359.06
2022-07-29T06:54:00.373Z,98357.28
2022-07-29T06:56:38.311Z,98362.94
2022-07-29T06:59:11.486Z,98354.28
2022-07-29T07:01:42.858Z,98344.31
2022-07-29T07:04:13.161Z,98351.38
2022-07-29T07:06:42.604Z,98349.59
2022-07-29T07:09:11.796Z,98350.25
2022-07-29T07:11:41.084Z,98344.53
2022-07-29T07:14:10.397Z,98339.59
2022-07-29T07:16:39.666Z,98342.78
2022-07-29T07:19:08.982Z,98328.53
2022-07-29T07:21:38.288Z,98335.66
2022-07-29T07:24:07.693Z,98331.22
2022-07-29T07:26:36.933Z,98330.53
2022-07-29T07:29:06.284Z,98317.66
2022-07-29T07:31:35.560Z,98306.94
2022-07-29T07:34:05.143Z,98310.47
2022-07-29T07:36:34.378Z,98311.97
2022-07-29T07:39:04.594Z,98313.00
2022-07-29T07:41:33.892Z,98305.06
2022-07-29T07:44:03.289Z,98313.38
2022-07-29T07:46:32.822Z,98318.50
2022-07-29T07:49:02.071Z,98290.31
2022-07-29T07:51:31.338Z,98303.22
2022-07-29T07:54:01.844Z,98305.44
2022-07-29T07:56:35.344Z,98303.44
2022-07-29T07:59:04.898Z,98297.94
2022-07-29T08:01:55.151Z,98301.34
2022-07-29T08:04:27.929Z,98283.88
2022-07-29T08:06:58.845Z,98287.56
2022-07-29T08:09:30.546Z,98286.66
2022-07-29T08:12:00.388Z,98297.91
2022-07-29T08:14:30.945Z,98282.97
2022-07-29T08:17:00.462Z,98283.19
2022-07-29T08:19:29.839Z,98286.81
2022-07-29T08:21:59.134Z,98270.72
2022-07-29T08:24:46.799Z,98281.78
2022-07-29T08:27:42.063Z,98271.34
2022-07-29T08:30:05.823Z,98272.03
2022-07-29T08:32:53.106Z,98268.25
2022-07-29T08:35:24.489Z,98270.75
2022-07-29T08:37:54.345Z,98276.59
2022-07-29T08:40:31.828Z,98267.56
2022-07-29T08:43:09.554Z,98269.94
2022-07-29T08:45:48.113Z,98274.00
2022-07-29T08:48:20.254Z,98258.38
2022-07-29T08:50:53.578Z,98262.47
2022-07-29T08:53:25.738Z,98264.00
2022-07-29T08:55:56.101Z,98259.91
2022-07-29T08:58:26.575Z,98257.41
2022-07-29T09:00:57.916Z,98256.41
2022-07-29T09:03:32.592Z,98249.75
2022-07-29T09:06:03.142Z,98245.31
2022-07-29T09:08:33.563Z,98244.97
2022-07-29T09:11:05.342Z,98246.19
2022-07-29T09:13:35.576Z,98242.66
2022-07-29T09:16:09.551Z,98243.84
2022-07-29T09:18:44.404Z,98233.88
2022-07-29T09:21:34.025Z,98238.00
2022-07-29T09:24:07.929Z,98242.84
2022-07-29T09:26:43.429Z,98229.72
2022-07-29T09:29:20.926Z,98234.78
2022-07-29T09:31:53.245Z,98234.03
2022-07-29T09:34:27.979Z,98232.28
2022-07-29T09:36:57.798Z,98227.75
2022-07-29T09:39:46.689Z,98215.47
2022-07-29T09:42:28.936Z,98217.38
2022-07-29T09:44:58.235Z,98208.91
2022-07-29T09:47:43.156Z,98213.09
2022-07-29T09:50:12.553Z,98200.25
2022-07-29T09:52:50.016Z,98196.91
2022-07-29T09:55:20.241Z,98197.34
2022-07-29T09:57:49.517Z,98194.44
2022-07-29T10:00:20.836Z,98183.59
2022-07-29T10:02:50.575Z,98181.75
2022-07-29T10:05:21.411Z,98183.72
2022-07-29T10:07:57.479Z,98183.00
2022-07-29T10:10:27.079Z,98174.91
2022-07-29T10:13:01.841Z,98179.22
2022-07-29T10:15:41.845Z,98161.81
2022-07-29T10:18:15.571Z,98165.06
2022-07-29T10:20:44.899Z,98168.44
2022-07-29T10:23:15.019Z,98168.78
2022-07-29T10:25:46.983Z,98168.44
2022-07-29T10:28:16.920Z,98161.16
2022-07-29T10:30:47.931Z,98154.88
2022-07-29T10:33:47.660Z,98165.28
2022-07-29T10:36:45.028Z,98159.41
2022-07-29T10:39:49.857Z,98160.31
2022-07-29T10:45:18.690Z,98148.78
2022-07-29T10:47:47.993Z,98147.25
2022-07-29T10:50:17.522Z,98144.75
2022-07-29T10:52:57.650Z,98135.00
2022-07-29T10:55:43.145Z,98155.38
2022-07-29T10:58:14.663Z,98158.69
2022-07-29T11:00:45.615Z,98156.16
2022-07-29T11:03:50.410Z,98151.31
2022-07-29T11:06:26.758Z,98138.16
2022-07-29T11:09:20.104Z,98140.22
2022-07-29T11:11:58.167Z,98146.34
2022-07-29T11:15:00.042Z,98145.88
2022-07-29T11:17:47.154Z,98146.78
2022-07-29T11:20:49.808Z,98156.78
2022-07-29T11:23:36.713Z,98160.66
2022-07-29T11:26:22.950Z,98166.91
2022-07-29T11:29:17.727Z,98192.75
2022-07-29T11:31:50.906Z,98196.03
2022-07-29T11:34:34.807Z,98232.84
2022-07-29T11:37:10.331Z,98242.94
2022-07-29T11:40:08.442Z,98229.31
2022-07-29T11:42:44.572Z,98209.03
2022-07-29T11:45:42.734Z,98218.81
2022-07-29T11:48:29.542Z,98201.00
2022-07-29T11:50:58.423Z,98198.97
2022-07-29T11:53:28.976Z,98213.91
2022-07-29T11:56:02.780Z,98184.03
2022-07-29T11:58:32.940Z,98214.28
2022-07-29T12:04:03.968Z,98226.16
2022-07-29T12:06:36.135Z,98218.69
2022-07-29T12:07:03.869Z,98214.50
2022-07-29T12:09:14.370Z,98222.22
2022-07-29T12:11:47.367Z,98238.16
2022-07-29T12:14:48.750Z,98260.72
2022-07-29T12:17:30.856Z,98265.50
2022-07-29T12:20:05.095Z,98277.59
2022-07-29T12:22:38.314Z,98274.31
2022-07-29T12:25:32.859Z,98289.19
2022-07-29T12:28:02.015Z,98292.66
2022-07-29T12:30:52.016Z,98303.53
2022-07-29T12:33:27.403Z,98314.69
2022-07-29T12:36:14.180Z,98313.38
2022-07-29T12:38:47.325Z,98298.19
2022-07-29T12:41:16.636Z,98274.22
2022-07-29T12:43:55.756Z,98248.69
2022-07-29T12:46:25.048Z,98222.34
2022-07-29T12:48:59.690Z,98202.47
2022-07-29T12:51:40.592Z,98203.66
2022-07-29T12:54:18.845Z,98214.38
2022-07-29T12:57:01.250Z,98217.84
2022-07-29T12:59:30.583Z,98213.81
2022-07-29T13:02:01.107Z,98192.88
2022-07-29T13:04:36.628Z,98182.31
2022-07-29T13:07:09.223Z,98173.16
2022-07-29T13:09:44.539Z,98171.13
2022-07-29T13:12:15.471Z,98173.50
2022-07-29T13:14:47.735Z,98170.03
2022-07-29T13:17:18.469Z,98169.56
2022-07-29T13:19:48.845Z,98173.84
2022-07-29T13:22:20.428Z,98167.13
2022-07-29T13:25:02.558Z,98172.28
2022-07-29T13:27:39.577Z,98177.47
2022-07-29T13:30:10.415Z,98178.44
2022-07-29T13:32:39.850Z,98181.38
2022-07-29T13:35:09.758Z,98162.44
2022-07-29T13:37:41.600Z,98172.00
2022-07-29T13:40:11.658Z,98171.28
2022-07-29T13:42:41.973Z,98163.03
2022-07-29T13:45:11.952Z,98150.13
2022-07-29T13:47:45.980Z,98162.19
2022-07-29T13:50:18.589Z,98154.75
2022-07-29T13:52:49.464Z,98138.25
2022-07-29T13:55:19.004Z,98137.00
2022-07-29T13:57:48.689Z,98143.25
2022-07-29T14:00:18.243Z,98148.03
2022-07-29T14:02:47.571Z,98151.63
2022-07-29T14:05:16.854Z,98156.06
2022-07-29T14:07:46.053Z,98135.41
2022-07-29T14:10:19.948Z,98147.00
2022-07-29T14:12:49.424Z,98131.25
2022-07-29T14:15:18.725Z,98144.06
2022-07-29T14:17:48.046Z,98139.03
2022-07-29T14:20:17.380Z,98134.41
2022-07-29T14:22:46.586Z,98131.69
2022-07-29T14:25:16.172Z,98136.53
2022-07-29T14:27:45.764Z,98133.38
2022-07-29T14:30:15.644Z,98125.03
2022-07-29T14:32:44.868Z,98127.50
2022-07-29T14:35:14.140Z,98123.63
2022-07-29T14:37:43.457Z,98131.56
2022-07-29T14:40:12.776Z,98113.56
2022-07-29T14:42:42.308Z,98093.69
2022-07-29T14:45:11.692Z,98095.09
2022-07-29T14:47:41.068Z,98094.22
2022-07-29T14:50:11.543Z,98094.88
2022-07-29T14:52:41.494Z,98102.28
2022-07-29T14:55:19.594Z,98096.72
2022-07-29T14:57:50.992Z,98102.81
2022-07-29T15:00:21.774Z,98086.44
2022-07-29T15:03:04.706Z,98085.53
2022-07-29T15:05:34.131Z,98096.34
2022-07-29T15:08:03.912Z,98102.34
2022-07-29T15:10:33.919Z,98087.44
2022-07-29T15:13:03.260Z,98088.38
2022-07-29T15:15:32.476Z,98095.31
2022-07-29T15:18:01.648Z,98095.56
2022-07-29T15:20:31.025Z,98097.19
2022-07-29T15:23:00.250Z,98098.50
2022-07-29T15:25:29.588Z,98093.97
2022-07-29T15:28:01.705Z,98097.09
2022-07-29T15:30:34.062Z,98092.69
2022-07-29T15:33:04.452Z,98100.84
2022-07-29T15:35:40.130Z,98100.16
2022-07-29T15:38:09.964Z,98107.28
2022-07-29T15:40:42.238Z,98109.84
2022-07-29T15:43:11.487Z,98108.41
2022-07-29T15:46:03.696Z,98112.97
2022-07-29T15:48:33.033Z,98106.56
2022-07-29T15:51:02.292Z,98095.94
2022-07-29T15:53:31.519Z,98089.28
2022-07-29T15:56:02.335Z,98080.56
2022-07-29T15:58:31.487Z,98074.84
2022-07-29T16:01:00.723Z,98075.34
2022-07-29T16:03:29.997Z,98076.34
2022-07-29T16:05:59.444Z,98064.03
2022-07-29T16:08:28.604Z,98072.84
2022-07-29T16:10:57.839Z,98076.78
2022-07-29T16:13:26.986Z,98079.25
2022-07-29T16:16:02.120Z,98091.38
2022-07-29T16:18:32.642Z,98096.06
2022-07-29T16:21:01.915Z,98106.19
2022-07-29T16:23:31.149Z,98090.44
2022-07-29T16:26:01.385Z,98083.25
2022-07-29T16:28:30.965Z,98089.13
2022-07-29T16:31:00.199Z,98090.28
2022-07-29T16:33:53.562Z,98098.03
2022-07-29T16:36:19.721Z,98102.41
2022-07-29T16:38:49.041Z,98100.34
2022-07-29T16:41:18.280Z,98106.66
2022-07-29T16:43:47.667Z,98098.88
2022-07-29T16:46:19.146Z,98094.09
2022-07-29T16:48:49.748Z,98102.00
2022-07-29T16:51:19.048Z,98105.75
2022-07-29T16:53:50.287Z,98097.78
2022-07-29T16:56:19.719Z,98107.72
2022-07-29T16:58:48.955Z,98105.88
2022-07-29T17:01:18.321Z,98109.91
2022-07-29T17:04:06.036Z,98099.44
2022-07-29T17:06:40.543Z,98104.06
2022-07-29T17:09:11.437Z,98112.81
2022-07-29T17:11:53.654Z,98106.13
2022-07-29T17:14:26.020Z,98101.78
2022-07-29T17:17:01.388Z,98104.06
2022-07-29T17:19:34.220Z,98111.25
2022-07-29T17:22:18.937Z,98115.44
2022-07-29T17:24:48.733Z,98125.25
2022-07-29T17:27:18.559Z,98126.59
2022-07-29T17:29:47.959Z,98119.66
2022-07-29T17:32:17.454Z,98123.41
2022-07-29T17:34:46.619Z,98118.44
2022-07-29T17:37:15.831Z,98125.38
2022-07-29T17:39:45.067Z,98121.03
2022-07-29T17:42:14.706Z,98122.63
2022-07-29T17:44:43.893Z,98117.28
2022-07-29T17:47:15.966Z,98118.84
2022-07-29T17:49:45.996Z,98109.75
2022-07-29T17:52:16.047Z,98099.78
2022-07-29T17:54:45.273Z,98111.25
2022-07-29T17:57:14.466Z,98110.34
2022-07-29T17:59:43.830Z,98122.91
2022-07-29T18:02:14.476Z,98127.16
2022-07-29T18:04:44.062Z,98132.31
2022-07-29T18:07:13.514Z,98135.66
2022-07-29T18:09:42.714Z,98127.34
2022-07-29T18:12:11.938Z,98125.31
2022-07-29T18:14:41.160Z,98137.59
2022-07-29T18:17:10.535Z,98142.41
2022-07-29T18:19:39.764Z,98149.13
2022-07-29T18:22:10.233Z,98164.94
2022-07-29T18:24:39.427Z,98180.22
2022-07-29T18:27:08.632Z,98201.56
2022-07-29T18:29:37.908Z,98205.69
2022-07-29T18:32:07.524Z,98226.38
2022-07-29T18:34:36.696Z,98211.03
2022-07-29T18:37:05.924Z,98213.66
2022-07-29T18:39:35.122Z,98196.19
2022-07-29T18:42:04.613Z,98212.59
2022-07-29T18:44:34.421Z,98204.50
2022-07-29T18:47:12.951Z,98198.59
2022-07-29T18:49:42.397Z,98207.38
2022-07-29T18:52:12.523Z,98193.69
2022-07-29T18:54:42.109Z,98188.47
2022-07-29T18:57:54.703Z,98191.25
2022-07-29T19:00:00.627Z,98206.31
2022-07-29T19:02:29.927Z,98196.63
2022-07-29T19:04:59.175Z,98195.94
2022-07-29T19:07:29.920Z,98198.44
2022-07-29T19:09:59.258Z,98200.91
2022-07-29T19:12:28.672Z,98196.75
2022-07-29T19:14:57.912Z,98194.97
2022-07-29T19:17:27.071Z,98202.75
2022-07-29T19:19:56.323Z,98210.66
2022-07-29T19:22:25.552Z,98208.63
2022-07-29T19:24:54.760Z,98208.72
2022-07-29T19:27:24.070Z,98209.63
2022-07-29T19:29:55.814Z,98212.63
2022-07-29T19:32:28.508Z,98213.69
2022-07-29T19:35:15.866Z,98229.09
2022-07-29T19:37:45.138Z,98243.50
2022-07-29T19:40:16.229Z,98247.28
2022-07-29T19:42:45.610Z,98240.41
2022-07-29T19:45:14.881Z,98260.09
2022-07-29T19:47:44.142Z,98265.47
2022-07-29T19:50:15.679Z,98282.69
2022-07-29T19:52:47.108Z,98288.81
2022-07-29T19:55:16.520Z,98285.34
2022-07-29T19:57:47.956Z,98280.81
2022-07-29T20:00:17.652Z,98286.13
2022-07-29T20:02:50.271Z,98269.13
2022-07-29T20:05:19.470Z,98284.00
2022-07-29T20:07:48.801Z,98268.34
2022-07-29T20:10:17.981Z,98270.72
2022-07-29T20:12:47.154Z,98286.16
2022-07-29T20:15:20.498Z,98274.50
2022-07-29T20:17:51.850Z,98288.91
2022-07-29T20:20:25.390Z,98286.78
2022-07-29T20:22:54.600Z,98273.00
2022-07-29T20:25:24.234Z,98277.75
2022-07-29T20:27:54.376Z,98293.47
2022-07-29T20:30:23.910Z,98290.53
2022-07-29T20:32:53.119Z,98281.75
2022-07-29T20:35:23.948Z,98285.22
2022-07-29T20:37:56.445Z,98291.06
2022-07-29T20:40:27.078Z,98277.56
2022-07-29T20:42:56.451Z,98271.19
2022-07-29T20:45:25.886Z,98264.25
2022-07-29T20:47:55.182Z,98256.06
2022-07-29T20:50:24.844Z,98268.81
2022-07-29T20:52:54.042Z,98267.25
2022-07-29T20:55:23.420Z,98255.63
2022-07-29T20:57:52.639Z,98264.16
2022-07-29T21:00:21.996Z,98263.59
2022-07-29T21:02:51.724Z,98281.69
2022-07-29T21:05:21.070Z,98288.06
2022-07-29T21:07:51.274Z,98283.84
2022-07-29T21:10:22.604Z,98281.72
2022-07-29T21:12:51.835Z,98272.72
2022-07-29T21:15:21.964Z,98279.63
2022-07-29T21:17:59.467Z,98278.06
2022-07-29T21:20:29.696Z,98279.63
2022-07-29T21:22:59.009Z,98277.78
2022-07-29T21:25:29.757Z,98281.78
2022-07-29T21:28:17.365Z,98282.56
2022-07-29T21:30:46.674Z,98279.13
2022-07-29T21:33:15.898Z,98269.31
2022-07-29T21:36:06.949Z,98281.22
2022-07-29T21:38:35.443Z,98279.63
2022-07-29T21:41:05.543Z,98271.97
2022-07-29T21:43:34.822Z,98264.25
2022-07-29T21:46:04.129Z,98284.44
2022-07-29T21:48:33.434Z,98270.91
2022-07-29T21:51:02.766Z,98279.94
2022-07-29T21:53:32.121Z,98289.47
2022-07-29T21:56:01.388Z,98280.69
2022-07-29T21:58:30.557Z,98267.97
2022-07-29T22:01:00.411Z,98256.56
2022-07-29T22:03:29.744Z,98259.75
2022-07-29T22:05:59.270Z,98252.59
2022-07-29T22:08:28.590Z,98262.66
2022-07-29T22:10:57.795Z,98260.53
2022-07-29T22:13:27.039Z,98268.50
2022-07-29T22:15:56.310Z,98268.50
2022-07-29T22:18:25.570Z,98268.50
2022-07-29T22:20:55.715Z,98267.41
2022-07-29T22:23:25.129Z,98244.84
2022-07-29T22:25:54.376Z,98248.03
2022-07-29T22:28:23.575Z,98236.63
2022-07-29T22:30:52.892Z,98259.19
2022-07-29T22:33:22.226Z,98256.81
2022-07-29T22:35:51.424Z,98268.47
2022-07-29T22:38:20.708Z,98293.97
2022-07-29T22:40:51.307Z,98290.78
2022-07-29T22:43:20.609Z,98281.22
2022-07-29T22:45:49.835Z,98264.78
2022-07-29T22:48:19.190Z,98269.56
2022-07-29T22:50:48.462Z,98261.88
2022-07-29T22:53:17.713Z,98248.59
2022-07-29T22:55:47.839Z,98249.13
2022-07-29T22:58:17.067Z,98228.16
2022-07-29T23:00:46.242Z,98240.13
2022-07-29T23:03:15.493Z,98241.44
2022-07-29T23:05:44.741Z,98241.94
2022-07-29T23:08:13.907Z,98244.06
2022-07-29T23:10:43.237Z,98243.00
2022-07-29T23:13:12.578Z,98230.00
2022-07-29T23:15:42.041Z,98239.03
2022-07-29T23:18:11.285Z,98236.63
2022-07-29T23:20:40.885Z,98217.00
2022-07-29T23:23:10.429Z,98228.94
2022-07-29T23:25:39.636Z,98211.69
2022-07-29T23:28:13.062Z,98217.53
2022-07-29T23:30:43.095Z,98223.34
2022-07-29T23:33:12.409Z,98221.78
2022-07-29T23:35:41.694Z,98215.13
2022-07-29T23:38:10.903Z,98212.22
2022-07-29T23:40:40.147Z,98205.84
2022-07-29T23:43:09.357Z,98213.56
2022-07-29T23:45:42.638Z,98204.78
2022-07-29T23:48:14.697Z,98205.31
2022-07-29T23:50:43.899Z,98189.69
2022-07-29T23:53:13.086Z,98189.94
2022-07-29T23:55:42.312Z,98178.81
2022-07-29T23:58:11.500Z,98184.63
